sensor_id;sensor_type;location;lat;lon;timestamp;temperature;humidity
30244;DHT22;64022;53.652;9.792;2024-03-29T00:01:00;22.10;50.90
30244;DHT22;64022;53.652;9.792;2024-03-29T00:03:27;22.10;50.90
30244;DHT22;64022;53.652;9.792;2024-03-29T00:05:53;22.10;50.90
30244;DHT22;64022;53.652;9.792;2024-03-29T00:08:19;22.10;50.90
30244;DHT22;64022;53.652;9.792;2024-03-29T00:10:48;22.10;50.90
30244;DHT22;64022;53.652;9.792;2024-03-29T00:13:14;22.10;51.00
30244;DHT22;64022;53.652;9.792;2024-03-29T00:15:39;22.00;50.90
30244;DHT22;64022;53.652;9.792;2024-03-29T00:18:06;22.10;51.00
30244;DHT22;64022;53.652;9.792;2024-03-29T00:20:31;22.00;50.90
30244;DHT22;64022;53.652;9.792;2024-03-29T00:22:57;22.10;51.00
30244;DHT22;64022;53.652;9.792;2024-03-29T00:25:23;22.00;50.90
30244;DHT22;64022;53.652;9.792;2024-03-29T00:27:50;22.10;51.00
30244;DHT22;64022;53.652;9.792;2024-03-29T00:30:15;22.10;51.00
30244;DHT22;64022;53.652;9.792;2024-03-29T00:32:41;22.10;51.00
30244;DHT22;64022;53.652;9.792;2024-03-29T00:35:06;22.10;51.00
30244;DHT22;64022;53.652;9.792;2024-03-29T00:37:33;22.10;51.00
30244;DHT22;64022;53.652;9.792;2024-03-29T00:39:58;22.10;51.00
30244;DHT22;64022;53.652;9.792;2024-03-29T00:42:24;22.10;51.00
30244;DHT22;64022;53.652;9.792;2024-03-29T00:44:50;22.00;50.90
30244;DHT22;64022;53.652;9.792;2024-03-29T00:47:15;22.00;50.90
30244;DHT22;64022;53.652;9.792;2024-03-29T00:49:41;22.10;51.00
30244;DHT22;64022;53.652;9.792;2024-03-29T00:52:06;22.00;51.00
30244;DHT22;64022;53.652;9.792;2024-03-29T00:54:32;22.10;51.00
30244;DHT22;64022;53.652;9.792;2024-03-29T00:56:58;22.00;51.00
30244;DHT22;64022;53.652;9.792;2024-03-29T00:59:25;22.00;51.00
30244;DHT22;64022;53.652;9.792;2024-03-29T01:01:50;22.00;51.00
30244;DHT22;64022;53.652;9.792;2024-03-29T01:04:16;22.00;51.00
30244;DHT22;64022;53.652;9.792;2024-03-29T01:06:42;22.00;51.00
30244;DHT22;64022;53.652;9.792;2024-03-29T01:09:08;22.00;51.00
30244;DHT22;64022;53.652;9.792;2024-03-29T01:11:37;22.00;51.00
30244;DHT22;64022;53.652;9.792;2024-03-29T01:14:02;22.00;51.00
30244;DHT22;64022;53.652;9.792;2024-03-29T01:16:28;22.00;51.00
30244;DHT22;64022;53.652;9.792;2024-03-29T01:18:53;22.00;51.00
30244;DHT22;64022;53.652;9.792;2024-03-29T01:21:19;22.00;51.00
30244;DHT22;64022;53.652;9.792;2024-03-29T01:23:45;22.00;51.00
30244;DHT22;64022;53.652;9.792;2024-03-29T01:26:11;22.00;51.00
30244;DHT22;64022;53.652;9.792;2024-03-29T01:28:38;22.00;51.00
30244;DHT22;64022;53.652;9.792;2024-03-29T01:31:04;22.00;51.00
30244;DHT22;64022;53.652;9.792;2024-03-29T01:33:29;22.00;51.00
30244;DHT22;64022;53.652;9.792;2024-03-29T01:35:58;22.00;51.00
30244;DHT22;64022;53.652;9.792;2024-03-29T01:38:23;22.00;51.00
30244;DHT22;64022;53.652;9.792;2024-03-29T01:40:49;22.00;51.00
30244;DHT22;64022;53.652;9.792;2024-03-29T01:43:14;22.00;51.00
30244;DHT22;64022;53.652;9.792;2024-03-29T01:45:40;22.00;51.00
30244;DHT22;64022;53.652;9.792;2024-03-29T01:48:06;22.00;51.00
30244;DHT22;64022;53.652;9.792;2024-03-29T01:50:32;22.00;51.10
30244;DHT22;64022;53.652;9.792;2024-03-29T01:52:58;22.00;51.00
30244;DHT22;64022;53.652;9.792;2024-03-29T01:55:25;21.90;51.00
30244;DHT22;64022;53.652;9.792;2024-03-29T01:57:51;22.00;51.00
30244;DHT22;64022;53.652;9.792;2024-03-29T02:00:16;22.00;51.00
30244;DHT22;64022;53.652;9.792;2024-03-29T02:02:42;22.00;51.10
30244;DHT22;64022;53.652;9.792;2024-03-29T02:05:08;22.00;51.00
30244;DHT22;64022;53.652;9.792;2024-03-29T02:07:34;21.90;51.00
30244;DHT22;64022;53.652;9.792;2024-03-29T02:10:00;22.00;51.00
30244;DHT22;64022;53.652;9.792;2024-03-29T02:12:26;22.00;51.00
30244;DHT22;64022;53.652;9.792;2024-03-29T02:14:53;21.90;51.00
30244;DHT22;64022;53.652;9.792;2024-03-29T02:17:29;21.90;51.00
30244;DHT22;64022;53.652;9.792;2024-03-29T02:19:54;22.00;51.00
30244;DHT22;64022;53.652;9.792;2024-03-29T02:22:20;21.90;51.00
30244;DHT22;64022;53.652;9.792;2024-03-29T02:24:47;22.00;51.00
30244;DHT22;64022;53.652;9.792;2024-03-29T02:27:14;21.90;51.00
30244;DHT22;64022;53.652;9.792;2024-03-29T02:29:40;21.90;51.50
30244;DHT22;64022;53.652;9.792;2024-03-29T02:32:05;22.00;51.10
30244;DHT22;64022;53.652;9.792;2024-03-29T02:34:31;21.90;51.00
30244;DHT22;64022;53.652;9.792;2024-03-29T02:36:56;21.90;51.00
30244;DHT22;64022;53.652;9.792;2024-03-29T02:39:22;22.00;51.00
30244;DHT22;64022;53.652;9.792;2024-03-29T02:41:48;22.00;51.00
30244;DHT22;64022;53.652;9.792;2024-03-29T02:44:14;22.00;51.00
30244;DHT22;64022;53.652;9.792;2024-03-29T02:46:41;21.90;51.00
30244;DHT22;64022;53.652;9.792;2024-03-29T02:49:08;21.90;51.00
30244;DHT22;64022;53.652;9.792;2024-03-29T02:51:33;21.90;51.00
30244;DHT22;64022;53.652;9.792;2024-03-29T02:53:58;21.90;51.00
30244;DHT22;64022;53.652;9.792;2024-03-29T02:56:24;21.90;51.00
30244;DHT22;64022;53.652;9.792;2024-03-29T02:58:51;21.90;51.00
30244;DHT22;64022;53.652;9.792;2024-03-29T03:01:17;21.90;51.00
30244;DHT22;64022;53.652;9.792;2024-03-29T03:03:43;21.90;51.00
30244;DHT22;64022;53.652;9.792;2024-03-29T03:06:09;21.90;51.00
30244;DHT22;64022;53.652;9.792;2024-03-29T03:08:34;21.90;51.00
30244;DHT22;64022;53.652;9.792;2024-03-29T03:11:19;21.90;51.00
30244;DHT22;64022;53.652;9.792;2024-03-29T03:13:45;21.90;51.00
30244;DHT22;64022;53.652;9.792;2024-03-29T03:16:10;21.90;51.00
30244;DHT22;64022;53.652;9.792;2024-03-29T03:18:36;21.90;51.50
30244;DHT22;64022;53.652;9.792;2024-03-29T03:21:01;21.90;51.00
30244;DHT22;64022;53.652;9.792;2024-03-29T03:23:28;21.90;51.00
30244;DHT22;64022;53.652;9.792;2024-03-29T03:25:54;21.90;51.00
30244;DHT22;64022;53.652;9.792;2024-03-29T03:28:19;21.90;51.00
30244;DHT22;64022;53.652;9.792;2024-03-29T03:30:45;21.90;51.00
30244;DHT22;64022;53.652;9.792;2024-03-29T03:33:13;21.90;51.00
30244;DHT22;64022;53.652;9.792;2024-03-29T03:35:38;21.90;51.00
30244;DHT22;64022;53.652;9.792;2024-03-29T03:38:04;21.90;51.00
30244;DHT22;64022;53.652;9.792;2024-03-29T03:40:30;21.90;51.00
30244;DHT22;64022;53.652;9.792;2024-03-29T03:42:55;21.90;51.00
30244;DHT22;64022;53.652;9.792;2024-03-29T03:45:21;21.90;51.00
30244;DHT22;64022;53.652;9.792;2024-03-29T03:47:46;21.90;51.00
30244;DHT22;64022;53.652;9.792;2024-03-29T03:50:14;21.80;50.90
30244;DHT22;64022;53.652;9.792;2024-03-29T03:52:39;21.90;51.00
30244;DHT22;64022;53.652;9.792;2024-03-29T03:55:05;21.80;50.90
30244;DHT22;64022;53.652;9.792;2024-03-29T03:57:31;21.90;51.00
30244;DHT22;64022;53.652;9.792;2024-03-29T03:59:59;21.90;51.00
30244;DHT22;64022;53.652;9.792;2024-03-29T04:02:25;21.90;51.00
30244;DHT22;64022;53.652;9.792;2024-03-29T04:04:51;21.80;51.00
30244;DHT22;64022;53.652;9.792;2024-03-29T04:07:17;21.90;51.00
30244;DHT22;64022;53.652;9.792;2024-03-29T04:09:43;21.90;51.00
30244;DHT22;64022;53.652;9.792;2024-03-29T04:12:08;21.80;51.00
30244;DHT22;64022;53.652;9.792;2024-03-29T04:14:33;21.90;51.00
30244;DHT22;64022;53.652;9.792;2024-03-29T04:16:59;21.90;51.00
30244;DHT22;64022;53.652;9.792;2024-03-29T04:19:25;21.90;51.00
30244;DHT22;64022;53.652;9.792;2024-03-29T04:21:52;21.90;51.00
30244;DHT22;64022;53.652;9.792;2024-03-29T04:24:17;21.80;51.00
30244;DHT22;64022;53.652;9.792;2024-03-29T04:26:43;21.90;51.00
30244;DHT22;64022;53.652;9.792;2024-03-29T04:29:10;21.90;51.00
30244;DHT22;64022;53.652;9.792;2024-03-29T04:31:35;21.90;51.00
30244;DHT22;64022;53.652;9.792;2024-03-29T04:34:01;21.80;51.00
30244;DHT22;64022;53.652;9.792;2024-03-29T04:36:26;21.90;51.00
30244;DHT22;64022;53.652;9.792;2024-03-29T04:38:52;21.90;51.00
30244;DHT22;64022;53.652;9.792;2024-03-29T04:41:18;21.90;51.00
30244;DHT22;64022;53.652;9.792;2024-03-29T04:43:44;21.80;51.00
30244;DHT22;64022;53.652;9.792;2024-03-29T04:46:13;21.90;51.00
30244;DHT22;64022;53.652;9.792;2024-03-29T04:48:40;21.90;51.00
30244;DHT22;64022;53.652;9.792;2024-03-29T04:51:06;21.90;51.00
30244;DHT22;64022;53.652;9.792;2024-03-29T04:53:32;21.80;51.00
30244;DHT22;64022;53.652;9.792;2024-03-29T04:55:58;21.90;51.00
30244;DHT22;64022;53.652;9.792;2024-03-29T04:58:25;21.90;51.00
30244;DHT22;64022;53.652;9.792;2024-03-29T05:00:51;21.90;51.00
30244;DHT22;64022;53.652;9.792;2024-03-29T05:03:17;21.90;51.00
30244;DHT22;64022;53.652;9.792;2024-03-29T05:05:42;21.90;51.00
30244;DHT22;64022;53.652;9.792;2024-03-29T05:08:08;21.90;51.00
30244;DHT22;64022;53.652;9.792;2024-03-29T05:10:33;21.90;51.00
30244;DHT22;64022;53.652;9.792;2024-03-29T05:13:00;21.90;51.00
30244;DHT22;64022;53.652;9.792;2024-03-29T05:15:26;21.90;51.00
30244;DHT22;64022;53.652;9.792;2024-03-29T05:17:52;21.90;51.00
30244;DHT22;64022;53.652;9.792;2024-03-29T05:20:18;21.90;51.00
30244;DHT22;64022;53.652;9.792;2024-03-29T05:22:44;21.90;51.00
30244;DHT22;64022;53.652;9.792;2024-03-29T05:25:09;21.90;51.00
30244;DHT22;64022;53.652;9.792;2024-03-29T05:27:35;21.90;51.00
30244;DHT22;64022;53.652;9.792;2024-03-29T05:30:01;21.90;51.00
30244;DHT22;64022;53.652;9.792;2024-03-29T05:32:28;21.90;51.00
30244;DHT22;64022;53.652;9.792;2024-03-29T05:34:54;21.90;51.00
30244;DHT22;64022;53.652;9.792;2024-03-29T05:37:19;21.90;51.00
30244;DHT22;64022;53.652;9.792;2024-03-29T05:39:45;21.90;51.00
30244;DHT22;64022;53.652;9.792;2024-03-29T05:42:11;21.90;51.00
30244;DHT22;64022;53.652;9.792;2024-03-29T05:44:37;21.90;51.00
30244;DHT22;64022;53.652;9.792;2024-03-29T05:47:03;21.90;51.00
30244;DHT22;64022;53.652;9.792;2024-03-29T05:49:30;21.90;50.90
30244;DHT22;64022;53.652;9.792;2024-03-29T05:51:56;22.00;51.00
30244;DHT22;64022;53.652;9.792;2024-03-29T05:54:21;21.90;50.90
30244;DHT22;64022;53.652;9.792;2024-03-29T05:56:48;21.90;50.90
30244;DHT22;64022;53.652;9.792;2024-03-29T05:59:15;22.00;51.00
30244;DHT22;64022;53.652;9.792;2024-03-29T06:01:40;22.00;51.00
30244;DHT22;64022;53.652;9.792;2024-03-29T06:04:06;22.00;51.00
30244;DHT22;64022;53.652;9.792;2024-03-29T06:06:39;22.00;51.00
30244;DHT22;64022;53.652;9.792;2024-03-29T06:09:05;22.00;51.00
30244;DHT22;64022;53.652;9.792;2024-03-29T06:11:30;22.00;51.00
30244;DHT22;64022;53.652;9.792;2024-03-29T06:13:56;22.00;51.00
30244;DHT22;64022;53.652;9.792;2024-03-29T06:16:26;22.00;51.00
30244;DHT22;64022;53.652;9.792;2024-03-29T06:19:10;22.00;51.00
30244;DHT22;64022;53.652;9.792;2024-03-29T06:21:36;22.00;51.00
30244;DHT22;64022;53.652;9.792;2024-03-29T06:24:09;21.90;50.90
30244;DHT22;64022;53.652;9.792;2024-03-29T06:26:37;21.90;50.90
30244;DHT22;64022;53.652;9.792;2024-03-29T06:29:04;22.00;51.00
30244;DHT22;64022;53.652;9.792;2024-03-29T06:31:29;21.90;50.90
30244;DHT22;64022;53.652;9.792;2024-03-29T06:33:57;21.90;50.90
30244;DHT22;64022;53.652;9.792;2024-03-29T06:36:23;21.90;50.90
30244;DHT22;64022;53.652;9.792;2024-03-29T06:38:48;21.90;50.90
30244;DHT22;64022;53.652;9.792;2024-03-29T06:41:14;21.90;50.90
30244;DHT22;64022;53.652;9.792;2024-03-29T06:43:41;21.90;50.90
30244;DHT22;64022;53.652;9.792;2024-03-29T06:46:09;22.00;51.00
30244;DHT22;64022;53.652;9.792;2024-03-29T06:48:34;21.90;51.00
30244;DHT22;64022;53.652;9.792;2024-03-29T06:51:00;22.00;51.00
30244;DHT22;64022;53.652;9.792;2024-03-29T06:53:25;21.90;51.00
30244;DHT22;64022;53.652;9.792;2024-03-29T06:55:51;22.00;51.00
30244;DHT22;64022;53.652;9.792;2024-03-29T06:58:16;21.90;51.00
30244;DHT22;64022;53.652;9.792;2024-03-29T07:00:43;21.90;51.00
30244;DHT22;64022;53.652;9.792;2024-03-29T07:03:09;22.00;51.00
30244;DHT22;64022;53.652;9.792;2024-03-29T07:05:34;22.00;51.00
30244;DHT22;64022;53.652;9.792;2024-03-29T07:08:00;21.90;51.00
30244;DHT22;64022;53.652;9.792;2024-03-29T07:10:26;21.90;51.00
30244;DHT22;64022;53.652;9.792;2024-03-29T07:12:52;22.00;51.00
30244;DHT22;64022;53.652;9.792;2024-03-29T07:15:17;22.00;51.00
30244;DHT22;64022;53.652;9.792;2024-03-29T07:17:43;22.00;51.10
30244;DHT22;64022;53.652;9.792;2024-03-29T07:20:09;22.00;51.10
30244;DHT22;64022;53.652;9.792;2024-03-29T07:22:35;22.00;51.10
30244;DHT22;64022;53.652;9.792;2024-03-29T07:25:00;22.00;51.10
30244;DHT22;64022;53.652;9.792;2024-03-29T07:27:26;22.00;51.10
30244;DHT22;64022;53.652;9.792;2024-03-29T07:29:53;22.00;51.10
30244;DHT22;64022;53.652;9.792;2024-03-29T07:32:18;22.00;51.20
30244;DHT22;64022;53.652;9.792;2024-03-29T07:34:44;22.00;51.20
30244;DHT22;64022;53.652;9.792;2024-03-29T07:37:11;22.00;51.20
30244;DHT22;64022;53.652;9.792;2024-03-29T07:39:41;22.10;51.20
30244;DHT22;64022;53.652;9.792;2024-03-29T07:42:07;22.10;51.20
30244;DHT22;64022;53.652;9.792;2024-03-29T07:44:33;22.10;51.20
30244;DHT22;64022;53.652;9.792;2024-03-29T07:46:58;22.10;51.20
30244;DHT22;64022;53.652;9.792;2024-03-29T07:49:24;22.00;51.20
30244;DHT22;64022;53.652;9.792;2024-03-29T07:51:49;22.10;51.20
30244;DHT22;64022;53.652;9.792;2024-03-29T07:54:15;22.10;51.30
30244;DHT22;64022;53.652;9.792;2024-03-29T07:56:41;22.00;51.20
30244;DHT22;64022;53.652;9.792;2024-03-29T07:59:08;22.10;51.20
30244;DHT22;64022;53.652;9.792;2024-03-29T08:01:33;22.10;51.30
30244;DHT22;64022;53.652;9.792;2024-03-29T08:03:59;22.10;51.30
30244;DHT22;64022;53.652;9.792;2024-03-29T08:06:24;22.10;51.30
30244;DHT22;64022;53.652;9.792;2024-03-29T08:08:50;22.10;51.30
30244;DHT22;64022;53.652;9.792;2024-03-29T08:11:16;22.10;51.30
30244;DHT22;64022;53.652;9.792;2024-03-29T08:13:42;22.10;51.30
30244;DHT22;64022;53.652;9.792;2024-03-29T08:16:07;22.10;51.30
30244;DHT22;64022;53.652;9.792;2024-03-29T08:18:33;22.10;51.30
30244;DHT22;64022;53.652;9.792;2024-03-29T08:21:02;22.10;51.30
30244;DHT22;64022;53.652;9.792;2024-03-29T08:23:28;22.10;51.30
30244;DHT22;64022;53.652;9.792;2024-03-29T08:25:54;22.10;51.30
30244;DHT22;64022;53.652;9.792;2024-03-29T08:28:21;22.10;51.30
30244;DHT22;64022;53.652;9.792;2024-03-29T08:30:56;22.10;51.10
30244;DHT22;64022;53.652;9.792;2024-03-29T08:33:22;22.00;49.10
30244;DHT22;64022;53.652;9.792;2024-03-29T08:35:48;21.80;47.40
30244;DHT22;64022;53.652;9.792;2024-03-29T08:38:13;21.60;46.50
30244;DHT22;64022;53.652;9.792;2024-03-29T08:40:39;21.40;45.60
30244;DHT22;64022;53.652;9.792;2024-03-29T08:43:07;21.20;45.30
30244;DHT22;64022;53.652;9.792;2024-03-29T08:45:32;21.00;44.70
30244;DHT22;64022;53.652;9.792;2024-03-29T08:47:58;20.90;44.40
30244;DHT22;64022;53.652;9.792;2024-03-29T08:50:23;20.70;43.90
30244;DHT22;64022;53.652;9.792;2024-03-29T08:52:49;20.70;43.70
30244;DHT22;64022;53.652;9.792;2024-03-29T08:55:15;20.60;43.60
30244;DHT22;64022;53.652;9.792;2024-03-29T08:57:40;20.50;43.40
30244;DHT22;64022;53.652;9.792;2024-03-29T09:00:06;20.40;43.40
30244;DHT22;64022;53.652;9.792;2024-03-29T09:02:32;20.40;43.80
30244;DHT22;64022;53.652;9.792;2024-03-29T09:04:57;20.40;44.10
30244;DHT22;64022;53.652;9.792;2024-03-29T09:07:23;20.50;44.40
30244;DHT22;64022;53.652;9.792;2024-03-29T09:09:49;20.60;44.60
30244;DHT22;64022;53.652;9.792;2024-03-29T09:12:15;20.70;44.80
30244;DHT22;64022;53.652;9.792;2024-03-29T09:14:40;20.70;44.90
30244;DHT22;64022;53.652;9.792;2024-03-29T09:17:06;20.70;45.00
30244;DHT22;64022;53.652;9.792;2024-03-29T09:19:31;20.80;45.10
30244;DHT22;64022;53.652;9.792;2024-03-29T09:21:57;20.90;45.30
30244;DHT22;64022;53.652;9.792;2024-03-29T09:24:23;20.90;45.40
30244;DHT22;64022;53.652;9.792;2024-03-29T09:26:51;21.00;45.50
30244;DHT22;64022;53.652;9.792;2024-03-29T09:29:17;21.00;45.50
30244;DHT22;64022;53.652;9.792;2024-03-29T09:31:45;21.00;45.60
30244;DHT22;64022;53.652;9.792;2024-03-29T09:34:11;21.10;45.70
30244;DHT22;64022;53.652;9.792;2024-03-29T09:36:36;21.10;45.70
30244;DHT22;64022;53.652;9.792;2024-03-29T09:39:02;21.10;45.70
30244;DHT22;64022;53.652;9.792;2024-03-29T09:41:29;21.10;45.80
30244;DHT22;64022;53.652;9.792;2024-03-29T09:43:57;21.20;45.90
30244;DHT22;64022;53.652;9.792;2024-03-29T09:46:25;21.20;45.90
30244;DHT22;64022;53.652;9.792;2024-03-29T09:48:50;21.20;46.00
30244;DHT22;64022;53.652;9.792;2024-03-29T09:51:16;21.30;46.00
30244;DHT22;64022;53.652;9.792;2024-03-29T09:53:43;21.30;46.10
30244;DHT22;64022;53.652;9.792;2024-03-29T09:56:10;21.30;46.10
30244;DHT22;64022;53.652;9.792;2024-03-29T09:58:37;21.30;46.70
30244;DHT22;64022;53.652;9.792;2024-03-29T10:01:04;21.40;46.20
30244;DHT22;64022;53.652;9.792;2024-03-29T10:03:30;21.40;46.20
30244;DHT22;64022;53.652;9.792;2024-03-29T10:05:56;21.40;46.20
30244;DHT22;64022;53.652;9.792;2024-03-29T10:08:23;21.40;46.30
30244;DHT22;64022;53.652;9.792;2024-03-29T10:10:49;21.50;46.40
30244;DHT22;64022;53.652;9.792;2024-03-29T10:13:16;21.50;46.40
30244;DHT22;64022;53.652;9.792;2024-03-29T10:15:41;21.50;46.50
30244;DHT22;64022;53.652;9.792;2024-03-29T10:18:15;21.50;46.50
30244;DHT22;64022;53.652;9.792;2024-03-29T10:20:41;21.60;46.60
30244;DHT22;64022;53.652;9.792;2024-03-29T10:23:07;21.60;46.70
30244;DHT22;64022;53.652;9.792;2024-03-29T10:25:35;21.60;46.70
30244;DHT22;64022;53.652;9.792;2024-03-29T10:28:01;21.60;46.80
30244;DHT22;64022;53.652;9.792;2024-03-29T10:30:30;21.70;47.00
30244;DHT22;64022;53.652;9.792;2024-03-29T10:32:56;21.70;47.00
30244;DHT22;64022;53.652;9.792;2024-03-29T10:35:22;21.70;47.00
30244;DHT22;64022;53.652;9.792;2024-03-29T10:37:47;21.70;47.10
30244;DHT22;64022;53.652;9.792;2024-03-29T10:40:13;21.70;47.70
30244;DHT22;64022;53.652;9.792;2024-03-29T10:42:41;21.70;47.20
30244;DHT22;64022;53.652;9.792;2024-03-29T10:45:07;21.80;47.30
30244;DHT22;64022;53.652;9.792;2024-03-29T10:47:33;21.80;47.30
30244;DHT22;64022;53.652;9.792;2024-03-29T10:49:58;21.80;47.30
30244;DHT22;64022;53.652;9.792;2024-03-29T10:52:24;21.80;47.30
30244;DHT22;64022;53.652;9.792;2024-03-29T10:54:54;21.90;47.40
30244;DHT22;64022;53.652;9.792;2024-03-29T10:57:25;21.80;47.40
30244;DHT22;64022;53.652;9.792;2024-03-29T10:59:58;21.90;47.50
30244;DHT22;64022;53.652;9.792;2024-03-29T11:05:12;21.90;47.50
30244;DHT22;64022;53.652;9.792;2024-03-29T11:07:39;21.90;47.60
30244;DHT22;64022;53.652;9.792;2024-03-29T11:10:05;21.90;47.60
30244;DHT22;64022;53.652;9.792;2024-03-29T11:12:35;21.90;47.60
30244;DHT22;64022;53.652;9.792;2024-03-29T11:15:03;21.90;47.60
30244;DHT22;64022;53.652;9.792;2024-03-29T11:17:31;21.90;47.60
30244;DHT22;64022;53.652;9.792;2024-03-29T11:20:00;22.00;47.70
30244;DHT22;64022;53.652;9.792;2024-03-29T11:22:27;21.90;47.70
30244;DHT22;64022;53.652;9.792;2024-03-29T11:24:53;22.00;47.70
30244;DHT22;64022;53.652;9.792;2024-03-29T11:27:24;21.90;47.70
30244;DHT22;64022;53.652;9.792;2024-03-29T11:29:51;22.00;47.80
30244;DHT22;64022;53.652;9.792;2024-03-29T11:32:36;21.90;47.70
30244;DHT22;64022;53.652;9.792;2024-03-29T11:35:04;21.90;47.80
30244;DHT22;64022;53.652;9.792;2024-03-29T11:37:32;22.00;47.80
30244;DHT22;64022;53.652;9.792;2024-03-29T11:39:58;22.00;47.90
30244;DHT22;64022;53.652;9.792;2024-03-29T11:42:37;22.00;47.90
30244;DHT22;64022;53.652;9.792;2024-03-29T11:45:04;22.00;47.90
30244;DHT22;64022;53.652;9.792;2024-03-29T11:47:30;22.00;47.90
30244;DHT22;64022;53.652;9.792;2024-03-29T11:49:56;22.00;47.90
30244;DHT22;64022;53.652;9.792;2024-03-29T11:52:22;22.10;48.00
30244;DHT22;64022;53.652;9.792;2024-03-29T11:54:47;22.00;47.90
30244;DHT22;64022;53.652;9.792;2024-03-29T11:57:13;22.00;48.00
30244;DHT22;64022;53.652;9.792;2024-03-29T11:59:39;22.10;48.00
30244;DHT22;64022;53.652;9.792;2024-03-29T12:02:05;22.10;48.10
30244;DHT22;64022;53.652;9.792;2024-03-29T12:04:33;22.10;48.10
30244;DHT22;64022;53.652;9.792;2024-03-29T12:06:58;22.10;48.00
30244;DHT22;64022;53.652;9.792;2024-03-29T12:09:24;22.10;48.10
30244;DHT22;64022;53.652;9.792;2024-03-29T12:11:49;22.10;48.10
30244;DHT22;64022;53.652;9.792;2024-03-29T12:14:16;22.10;48.10
30244;DHT22;64022;53.652;9.792;2024-03-29T12:16:45;22.10;48.10
30244;DHT22;64022;53.652;9.792;2024-03-29T12:19:23;22.10;48.20
30244;DHT22;64022;53.652;9.792;2024-03-29T12:21:50;22.10;48.20
30244;DHT22;64022;53.652;9.792;2024-03-29T12:24:16;22.10;48.20
30244;DHT22;64022;53.652;9.792;2024-03-29T12:26:41;22.10;48.20
30244;DHT22;64022;53.652;9.792;2024-03-29T12:29:07;22.10;48.20
30244;DHT22;64022;53.652;9.792;2024-03-29T12:31:33;22.20;48.30
30244;DHT22;64022;53.652;9.792;2024-03-29T12:33:58;22.10;48.30
30244;DHT22;64022;53.652;9.792;2024-03-29T12:36:26;22.10;48.30
30244;DHT22;64022;53.652;9.792;2024-03-29T12:38:55;22.20;48.40
30244;DHT22;64022;53.652;9.792;2024-03-29T12:41:28;22.20;48.40
30244;DHT22;64022;53.652;9.792;2024-03-29T12:43:53;22.20;48.40
30244;DHT22;64022;53.652;9.792;2024-03-29T12:46:19;22.20;48.40
30244;DHT22;64022;53.652;9.792;2024-03-29T12:48:45;22.20;48.40
30244;DHT22;64022;53.652;9.792;2024-03-29T12:51:10;22.20;48.40
30244;DHT22;64022;53.652;9.792;2024-03-29T12:53:38;22.20;48.50
30244;DHT22;64022;53.652;9.792;2024-03-29T12:56:04;22.20;48.50
30244;DHT22;64022;53.652;9.792;2024-03-29T12:58:30;22.20;48.50
30244;DHT22;64022;53.652;9.792;2024-03-29T13:00:55;22.20;48.50
30244;DHT22;64022;53.652;9.792;2024-03-29T13:03:21;22.20;48.50
30244;DHT22;64022;53.652;9.792;2024-03-29T13:05:46;22.20;48.50
30244;DHT22;64022;53.652;9.792;2024-03-29T13:08:12;22.20;48.50
30244;DHT22;64022;53.652;9.792;2024-03-29T13:10:40;22.20;48.50
30244;DHT22;64022;53.652;9.792;2024-03-29T13:13:06;22.20;48.60
30244;DHT22;64022;53.652;9.792;2024-03-29T13:15:33;22.20;48.60
30244;DHT22;64022;53.652;9.792;2024-03-29T13:17:59;22.20;48.60
30244;DHT22;64022;53.652;9.792;2024-03-29T13:20:25;22.20;48.60
30244;DHT22;64022;53.652;9.792;2024-03-29T13:22:51;22.20;48.60
30244;DHT22;64022;53.652;9.792;2024-03-29T13:25:17;22.20;48.60
30244;DHT22;64022;53.652;9.792;2024-03-29T13:27:44;22.20;48.60
30244;DHT22;64022;53.652;9.792;2024-03-29T13:30:10;22.20;48.70
30244;DHT22;64022;53.652;9.792;2024-03-29T13:32:40;22.20;48.70
30244;DHT22;64022;53.652;9.792;2024-03-29T13:35:06;22.20;48.70
30244;DHT22;64022;53.652;9.792;2024-03-29T13:37:38;22.20;48.70
30244;DHT22;64022;53.652;9.792;2024-03-29T13:40:07;22.20;48.70
30244;DHT22;64022;53.652;9.792;2024-03-29T13:42:36;22.20;48.70
30244;DHT22;64022;53.652;9.792;2024-03-29T13:45:02;22.20;48.70
30244;DHT22;64022;53.652;9.792;2024-03-29T13:47:28;22.20;48.80
30244;DHT22;64022;53.652;9.792;2024-03-29T13:49:53;22.20;48.80
30244;DHT22;64022;53.652;9.792;2024-03-29T13:52:20;22.20;48.80
30244;DHT22;64022;53.652;9.792;2024-03-29T13:54:45;22.20;48.80
30244;DHT22;64022;53.652;9.792;2024-03-29T13:57:13;22.20;48.80
30244;DHT22;64022;53.652;9.792;2024-03-29T13:59:39;22.20;48.80
30244;DHT22;64022;53.652;9.792;2024-03-29T14:02:04;22.20;48.80
30244;DHT22;64022;53.652;9.792;2024-03-29T14:04:30;22.20;48.90
30244;DHT22;64022;53.652;9.792;2024-03-29T14:06:56;22.20;48.90
30244;DHT22;64022;53.652;9.792;2024-03-29T14:09:23;22.20;48.90
30244;DHT22;64022;53.652;9.792;2024-03-29T14:11:49;22.20;48.90
30244;DHT22;64022;53.652;9.792;2024-03-29T14:14:15;22.20;48.90
30244;DHT22;64022;53.652;9.792;2024-03-29T14:16:41;22.20;48.90
30244;DHT22;64022;53.652;9.792;2024-03-29T14:19:07;22.20;49.00
30244;DHT22;64022;53.652;9.792;2024-03-29T14:21:32;22.20;48.90
30244;DHT22;64022;53.652;9.792;2024-03-29T14:23:58;22.20;49.00
30244;DHT22;64022;53.652;9.792;2024-03-29T14:26:24;22.20;49.00
30244;DHT22;64022;53.652;9.792;2024-03-29T14:28:50;22.20;49.00
30244;DHT22;64022;53.652;9.792;2024-03-29T14:31:16;22.20;49.00
30244;DHT22;64022;53.652;9.792;2024-03-29T14:33:43;22.20;49.00
30244;DHT22;64022;53.652;9.792;2024-03-29T14:36:10;22.20;49.00
30244;DHT22;64022;53.652;9.792;2024-03-29T14:38:35;22.20;49.00
30244;DHT22;64022;53.652;9.792;2024-03-29T14:41:01;22.20;49.00
30244;DHT22;64022;53.652;9.792;2024-03-29T14:43:26;22.20;49.00
30244;DHT22;64022;53.652;9.792;2024-03-29T14:45:52;22.20;49.00
30244;DHT22;64022;53.652;9.792;2024-03-29T14:48:18;22.20;49.10
30244;DHT22;64022;53.652;9.792;2024-03-29T14:50:44;22.20;49.10
30244;DHT22;64022;53.652;9.792;2024-03-29T14:53:09;22.20;49.10
30244;DHT22;64022;53.652;9.792;2024-03-29T14:55:35;22.20;49.10
30244;DHT22;64022;53.652;9.792;2024-03-29T14:58:05;22.20;49.10
30244;DHT22;64022;53.652;9.792;2024-03-29T15:00:31;22.20;49.10
30244;DHT22;64022;53.652;9.792;2024-03-29T15:02:56;22.20;49.10
30244;DHT22;64022;53.652;9.792;2024-03-29T15:05:22;22.20;49.10
30244;DHT22;64022;53.652;9.792;2024-03-29T15:07:49;22.20;49.20
30244;DHT22;64022;53.652;9.792;2024-03-29T15:10:14;22.20;49.20
30244;DHT22;64022;53.652;9.792;2024-03-29T15:12:41;22.20;49.20
30244;DHT22;64022;53.652;9.792;2024-03-29T15:15:06;22.20;49.20
30244;DHT22;64022;53.652;9.792;2024-03-29T15:17:33;22.20;49.20
30244;DHT22;64022;53.652;9.792;2024-03-29T15:19:59;22.20;49.30
30244;DHT22;64022;53.652;9.792;2024-03-29T15:22:25;22.20;49.30
30244;DHT22;64022;53.652;9.792;2024-03-29T15:24:51;22.20;49.30
30244;DHT22;64022;53.652;9.792;2024-03-29T15:27:18;22.20;49.30